Gilze Rijen Air Base


Codes: EHGR/GLZ
Name: Gilze Rijen Air Base
City: Breda
Country: Netherlands
Elevation: 49 ft.
Website:
Wikipedia:

Photos at Gilze Rijen Air Base


   Photos courtesy of SpottingLog. You can add your own sightings and photos by signing up for a free trial today.



D-472, 16-Feb-2023
© Ruben

S-459, 16-Feb-2023
© Ruben

D-481, 01-Sep-2022
© Ruben

Q-01, 01-Sep-2022
© Ruben

Q-26, 01-Sep-2022
© Ruben

10-20276, 01-Sep-2022
© Ruben


Weather at Gilze Rijen Air Base


Time (UTC)DescriptionTempratureWindCloud coverageVisibilityPressureHumidity
23-May-2024 21:00Light Rain15°C2 mph, SE70%10000m1016hPa77%
24-May-2024 00:00Broken Clouds14°C2 mph, SE67%10000m1016hPa85%
24-May-2024 03:00Overcast Clouds12°C2 mph, SE100%10000m1017hPa93%
24-May-2024 06:00Overcast Clouds14°C4 mph, SE100%10000m1018hPa88%
24-May-2024 09:00Light Rain14°C4 mph, SE100%9637m1019hPa93%
24-May-2024 12:00Light Rain14°C4 mph, NE100%10000m1018hPa96%
24-May-2024 15:00Light Rain14°C9 mph, NE100%10000m1018hPa93%
24-May-2024 18:00Light Rain13°C7 mph, N100%10000m1018hPa97%
24-May-2024 21:00Light Rain13°C7 mph, N100%10000m1018hPa98%
25-May-2024 00:00Light Rain13°C4 mph, NW100%10000m1017hPa99%
25-May-2024 03:00Light Rain13°C2 mph, NW100%10000m1017hPa98%
25-May-2024 06:00Overcast Clouds14°C4 mph, SW99%10000m1017hPa94%
25-May-2024 09:00Light Rain17°C7 mph, W83%10000m1017hPa77%
25-May-2024 12:00Light Rain18°C9 mph, W87%10000m1018hPa70%
25-May-2024 15:00Light Rain19°C7 mph, W77%10000m1017hPa68%
25-May-2024 18:00Broken Clouds17°C4 mph, NW56%10000m1017hPa78%
25-May-2024 21:00Clear Sky13°C4 mph, N1%10000m1018hPa89%
26-May-2024 00:00Broken Clouds13°C4 mph, E51%10000m1018hPa90%
26-May-2024 03:00Overcast Clouds12°C7 mph, E100%10000m1016hPa94%
26-May-2024 06:00Overcast Clouds15°C9 mph, SE100%10000m1016hPa88%
26-May-2024 09:00Overcast Clouds19°C9 mph, S99%10000m1016hPa68%
26-May-2024 12:00Light Rain20°C11 mph, S83%10000m1016hPa68%
26-May-2024 15:00Light Rain19°C13 mph, SW44%10000m1015hPa71%
26-May-2024 18:00Light Rain16°C7 mph, NW72%10000m1016hPa86%
26-May-2024 21:00Overcast Clouds13°C2 mph, W100%10000m1017hPa88%
27-May-2024 00:00Overcast Clouds13°C4 mph, SW100%10000m1017hPa91%
27-May-2024 03:00Light Rain13°C4 mph, SW100%10000m1017hPa96%
27-May-2024 06:00Light Rain14°C4 mph, W100%10000m1018hPa86%
27-May-2024 09:00Overcast Clouds14°C4 mph, NW100%10000m1018hPa79%
27-May-2024 12:00Overcast Clouds17°C7 mph, NW98%10000m1017hPa69%
27-May-2024 15:00Light Rain16°C7 mph, NW98%10000m1017hPa72%
27-May-2024 18:00Moderate Rain13°C7 mph, N99%9671m1017hPa92%
27-May-2024 21:00Light Rain12°C2 mph, NW100%10000m1018hPa88%
28-May-2024 00:00Light Rain9°C7 mph, SW93%10000m1019hPa93%
28-May-2024 03:00Few Clouds9°C7 mph, SW17%10000m1018hPa96%
28-May-2024 06:00Scattered Clouds11°C9 mph, SW26%10000m1019hPa85%
28-May-2024 09:00Clear Sky15°C11 mph, SW0%10000m1018hPa68%
28-May-2024 12:00Few Clouds18°C9 mph, SW14%10000m1017hPa55%
28-May-2024 15:00Light Rain17°C9 mph, SW80%10000m1015hPa72%
28-May-2024 18:00Light Rain15°C11 mph, SW89%10000m1015hPa84%